Gem Lake, Minnesota
Current Conditions -  °F | °C
As of 12:51 PM on Friday 21 Nov 2014 (Local Time) from K21D Reporting Station
Overcast Overcast  
Wind Chill: 13°   Ceiling: 12000
Heat Index: 27°   Visibility: 10mi
Dew Point: 18°   Wind: 18mph
Humidity: 69%   Direction: 180°S
Pressure: 30.1"   Gusts: 24mph
Location:  45.0958°N, 93.0043°W
Report Text: K21D 211851Z AUTO 18016G21KT 10SM OVC120 M03/M08 A3010 RMK AO2
Loading
Personal Weather Stations






























Interactive Weather Map New forecast layout! Learn more

10-Day Weather Forecast

Advertisements
Track Severe Weather on mobile